Time;durP1;ratioP1;P1;durP2;ratioP2;P2;SDS_P1;SDS_P2;PMS_P1;PMS_P2;Temp;Humidity;BMP_temperature;BMP_pressure;BME280_temperature;BME280_humidity;BME280_pressure;Samples;Min_cycle;Max_cycle;Signal;HPM_P1;HPM_P2
2021/06/17 00:02:09;;;;;;;2.84;2.09;;;;;;;21.52;63.68;99991.13;;;;-51
2021/06/17 00:05:09;;;;;;;2.56;2.10;;;;;;;21.51;63.74;99996.20;;;;-51
2021/06/17 00:08:09;;;;;;;2.13;1.99;;;;;;;21.50;63.77;99997.20;;;;-51
2021/06/17 00:11:09;;;;;;;2.87;2.30;;;;;;;21.50;63.75;100001.59;;;;-51
2021/06/17 00:14:09;;;;;;;2.38;2.04;;;;;;;21.49;63.77;100000.05;;;;-51
2021/06/17 00:17:09;;;;;;;3.36;2.10;;;;;;;21.49;63.76;100004.22;;;;-51
2021/06/17 00:20:09;;;;;;;2.79;2.01;;;;;;;21.48;63.82;100004.88;;;;-51
2021/06/17 00:23:09;;;;;;;2.25;2.03;;;;;;;21.47;63.74;99999.90;;;;-51
2021/06/17 00:26:09;;;;;;;2.73;2.02;;;;;;;21.47;63.73;99999.41;;;;-51
2021/06/17 00:29:09;;;;;;;2.30;2.00;;;;;;;21.46;63.79;99997.81;;;;-51
2021/06/17 00:32:09;;;;;;;2.25;2.05;;;;;;;21.46;63.82;99992.67;;;;-51
2021/06/17 00:35:09;;;;;;;2.20;2.00;;;;;;;21.45;63.80;99994.53;;;;-52
2021/06/17 00:38:09;;;;;;;3.25;2.00;;;;;;;21.44;63.79;99994.23;;;;-61
2021/06/17 00:41:09;;;;;;;2.67;2.00;;;;;;;21.44;63.86;99993.51;;;;-61
2021/06/17 00:44:09;;;;;;;4.37;2.09;;;;;;;21.44;63.81;99992.21;;;;-58
2021/06/17 00:47:09;;;;;;;2.33;1.89;;;;;;;21.43;63.88;99987.80;;;;-58
2021/06/17 00:50:09;;;;;;;2.19;1.99;;;;;;;21.42;63.84;99990.17;;;;-51
2021/06/17 00:53:09;;;;;;;2.24;1.89;;;;;;;21.42;63.91;99983.97;;;;-61
2021/06/17 00:56:09;;;;;;;2.16;1.96;;;;;;;21.42;63.85;99977.77;;;;-53
2021/06/17 00:59:09;;;;;;;2.99;1.97;;;;;;;21.41;63.87;99977.91;;;;-58
2021/06/17 01:02:09;;;;;;;2.31;2.10;;;;;;;21.41;63.82;99968.80;;;;-58
2021/06/17 01:05:09;;;;;;;2.00;1.87;;;;;;;21.40;63.82;99964.00;;;;-58
2021/06/17 01:08:09;;;;;;;2.27;2.07;;;;;;;21.40;63.90;99959.93;;;;-61
2021/06/17 01:11:09;;;;;;;2.29;1.83;;;;;;;21.40;63.87;99962.37;;;;-61
2021/06/17 01:14:09;;;;;;;2.19;1.91;;;;;;;21.39;63.89;99959.12;;;;-62
2021/06/17 01:17:09;;;;;;;2.48;1.93;;;;;;;21.39;63.86;99959.27;;;;-62
2021/06/17 01:20:09;;;;;;;2.22;2.02;;;;;;;21.38;63.75;99956.52;;;;-61
2021/06/17 01:23:09;;;;;;;2.38;2.01;;;;;;;21.37;63.85;99957.41;;;;-62
2021/06/17 01:27:09;;;;;;;2.09;1.92;;;;;;;21.38;63.83;99956.45;;;;-62
2021/06/17 01:30:09;;;;;;;1.93;1.81;;;;;;;21.38;63.87;99946.02;;;;-62
2021/06/17 01:33:09;;;;;;;2.50;1.97;;;;;;;21.37;63.78;99942.83;;;;-62
2021/06/17 01:36:09;;;;;;;2.45;1.90;;;;;;;21.36;63.80;99937.14;;;;-63
2021/06/17 01:39:09;;;;;;;2.33;1.94;;;;;;;21.36;63.80;99932.75;;;;-62
2021/06/17 01:42:09;;;;;;;2.08;1.88;;;;;;;21.36;63.76;99931.35;;;;-62
2021/06/17 01:45:10;;;;;;;2.36;1.99;;;;;;;21.36;63.75;99933.95;;;;-62
2021/06/17 01:48:09;;;;;;;1.80;1.70;;;;;;;21.36;63.80;99933.48;;;;-62
2021/06/17 01:51:09;;;;;;;2.29;1.95;;;;;;;21.35;63.83;99933.31;;;;-62
2021/06/17 01:54:09;;;;;;;2.09;1.89;;;;;;;21.34;63.79;99931.77;;;;-63
2021/06/17 01:57:09;;;;;;;2.48;1.91;;;;;;;21.34;63.76;99934.05;;;;-62
2021/06/17 02:00:09;;;;;;;2.45;1.80;;;;;;;21.34;63.82;99931.38;;;;-62
2021/06/17 02:03:09;;;;;;;2.07;1.90;;;;;;;21.34;63.80;99933.41;;;;-62
2021/06/17 02:06:09;;;;;;;2.12;1.92;;;;;;;21.33;63.74;99934.41;;;;-61
2021/06/17 02:09:09;;;;;;;2.15;1.81;;;;;;;21.34;63.76;99938.88;;;;-51
2021/06/17 02:12:09;;;;;;;1.91;1.78;;;;;;;21.33;63.70;99941.09;;;;-52
2021/06/17 02:15:09;;;;;;;2.48;1.73;;;;;;;21.34;63.77;99946.38;;;;-51
2021/06/17 02:18:09;;;;;;;2.21;1.74;;;;;;;21.33;63.71;99947.99;;;;-53
2021/06/17 02:21:09;;;;;;;2.02;1.91;;;;;;;21.32;63.70;99952.50;;;;-53
2021/06/17 02:24:09;;;;;;;2.11;1.79;;;;;;;21.32;63.77;99950.48;;;;-53
2021/06/17 02:27:09;;;;;;;1.90;1.80;;;;;;;21.32;63.74;99954.55;;;;-58
2021/06/17 02:30:09;;;;;;;1.97;1.80;;;;;;;21.32;63.67;99958.30;;;;-57
2021/06/17 02:33:09;;;;;;;2.12;1.70;;;;;;;21.32;63.74;99961.71;;;;-58
2021/06/17 02:36:09;;;;;;;1.99;1.84;;;;;;;21.31;63.75;99966.21;;;;-53
2021/06/17 02:39:09;;;;;;;2.08;1.83;;;;;;;21.30;63.71;99964.41;;;;-53
2021/06/17 02:42:09;;;;;;;1.89;1.70;;;;;;;21.31;63.66;99972.39;;;;-58
2021/06/17 02:45:09;;;;;;;1.87;1.75;;;;;;;21.30;63.73;99970.20;;;;-58
2021/06/17 02:48:09;;;;;;;2.00;1.80;;;;;;;21.30;63.73;99974.68;;;;-58
2021/06/17 02:51:09;;;;;;;2.04;1.86;;;;;;;21.29;63.61;99973.64;;;;-58
2021/06/17 02:54:09;;;;;;;1.80;1.70;;;;;;;21.29;63.65;99976.88;;;;-58
2021/06/17 02:57:09;;;;;;;1.89;1.76;;;;;;;21.29;63.70;99982.53;;;;-58
2021/06/17 03:00:09;;;;;;;2.05;1.85;;;;;;;21.29;63.70;99982.42;;;;-58
2021/06/17 03:03:09;;;;;;;1.95;1.73;;;;;;;21.27;63.66;99977.08;;;;-58
2021/06/17 03:06:09;;;;;;;2.35;1.80;;;;;;;21.28;63.71;99977.07;;;;-51
2021/06/17 03:09:09;;;;;;;2.31;1.87;;;;;;;21.27;63.66;99980.50;;;;-51
2021/06/17 03:12:10;;;;;;;1.99;1.81;;;;;;;21.28;63.67;99973.90;;;;-51
2021/06/17 03:15:09;;;;;;;1.81;1.71;;;;;;;21.28;63.68;99978.61;;;;-53
2021/06/17 03:18:09;;;;;;;1.87;1.76;;;;;;;21.27;63.73;99973.23;;;;-53
2021/06/17 03:21:09;;;;;;;1.92;1.82;;;;;;;21.26;63.62;99975.38;;;;-53
2021/06/17 03:24:09;;;;;;;1.90;1.71;;;;;;;21.26;63.72;99980.67;;;;-53
2021/06/17 03:27:09;;;;;;;2.04;1.80;;;;;;;21.26;63.60;99985.06;;;;-62
2021/06/17 03:30:09;;;;;;;1.78;1.68;;;;;;;21.26;63.67;99981.09;;;;-63
2021/06/17 03:33:09;;;;;;;1.85;1.75;;;;;;;21.25;63.61;99986.39;;;;-62
2021/06/17 03:36:09;;;;;;;1.83;1.72;;;;;;;21.25;63.67;99991.12;;;;-62
2021/06/17 03:39:09;;;;;;;1.94;1.75;;;;;;;21.25;63.69;99992.83;;;;-62
2021/06/17 03:42:09;;;;;;;1.93;1.79;;;;;;;21.25;63.62;99995.42;;;;-62
2021/06/17 03:45:09;;;;;;;2.67;1.68;;;;;;;21.24;63.62;99995.69;;;;-62
2021/06/17 03:48:09;;;;;;;1.80;1.67;;;;;;;21.25;63.65;99995.93;;;;-62
2021/06/17 03:51:09;;;;;;;1.88;1.76;;;;;;;21.25;63.66;99990.86;;;;-62
2021/06/17 03:54:09;;;;;;;1.84;1.74;;;;;;;21.24;63.65;99992.42;;;;-62
2021/06/17 03:57:09;;;;;;;1.79;1.68;;;;;;;21.23;63.58;99991.30;;;;-62
2021/06/17 04:00:09;;;;;;;2.04;1.77;;;;;;;21.23;63.73;99993.09;;;;-62
2021/06/17 04:03:09;;;;;;;1.71;1.61;;;;;;;21.23;63.57;99999.12;;;;-62
2021/06/17 04:06:09;;;;;;;1.73;1.63;;;;;;;21.24;63.58;100002.62;;;;-62
2021/06/17 04:09:09;;;;;;;2.00;1.60;;;;;;;21.23;63.64;100000.56;;;;-62
2021/06/17 04:12:09;;;;;;;1.71;1.61;;;;;;;21.23;63.71;100004.59;;;;-62
2021/06/17 04:15:09;;;;;;;1.69;1.59;;;;;;;21.23;63.65;100010.34;;;;-62
2021/06/17 04:18:09;;;;;;;1.81;1.70;;;;;;;21.23;63.64;100019.42;;;;-61
2021/06/17 04:21:09;;;;;;;2.22;1.81;;;;;;;21.22;63.68;100018.76;;;;-62
2021/06/17 04:24:09;;;;;;;1.88;1.70;;;;;;;21.22;63.65;100021.45;;;;-62
2021/06/17 04:27:09;;;;;;;1.77;1.65;;;;;;;21.22;63.68;100025.93;;;;-62
2021/06/17 04:30:10;;;;;;;1.70;1.60;;;;;;;21.21;63.70;100026.84;;;;-53
2021/06/17 04:33:09;;;;;;;1.85;1.71;;;;;;;21.21;63.68;100023.34;;;;-53
2021/06/17 04:36:09;;;;;;;2.13;1.66;;;;;;;21.21;63.55;100027.50;;;;-53
2021/06/17 04:39:09;;;;;;;1.71;1.61;;;;;;;21.21;63.61;100027.84;;;;-57
2021/06/17 04:42:09;;;;;;;5.35;2.00;;;;;;;21.21;63.99;100022.61;;;;-57
2021/06/17 04:45:09;;;;;;;2.16;1.62;;;;;;;21.22;64.10;100014.44;;;;-51
2021/06/17 04:48:09;;;;;;;2.49;1.81;;;;;;;21.24;64.42;100022.25;;;;-51
2021/06/17 04:51:10;;;;;;;3.35;2.07;;;;;;;21.25;64.37;100021.52;;;;-50
2021/06/17 04:54:09;;;;;;;3.03;2.23;;;;;;;21.29;64.32;100020.67;;;;-51
2021/06/17 04:57:09;;;;;;;2.57;2.30;;;;;;;21.29;64.39;100023.20;;;;-51
2021/06/17 05:00:09;;;;;;;3.91;2.68;;;;;;;21.30;64.43;100025.22;;;;-50
2021/06/17 05:03:09;;;;;;;3.45;2.93;;;;;;;21.33;64.26;100020.22;;;;-55
2021/06/17 05:06:09;;;;;;;2.97;2.69;;;;;;;21.31;64.16;100022.45;;;;-55
2021/06/17 05:12:09;;;;;;;4.23;2.69;;;;;;;21.30;63.99;100021.30;;;;-51
2021/06/17 05:15:09;;;;;;;5.14;3.01;;;;;;;21.30;63.89;100021.80;;;;-51
2021/06/17 05:18:09;;;;;;;4.25;2.97;;;;;;;21.29;63.89;100022.22;;;;-55
2021/06/17 05:21:09;;;;;;;3.47;2.90;;;;;;;21.28;63.93;100027.09;;;;-55
2021/06/17 05:24:09;;;;;;;4.86;2.89;;;;;;;21.27;63.86;100029.66;;;;-55
2021/06/17 05:27:09;;;;;;;3.14;2.71;;;;;;;21.28;63.86;100027.60;;;;-52
2021/06/17 05:30:09;;;;;;;3.27;2.88;;;;;;;21.27;63.82;100022.30;;;;-52
2021/06/17 05:33:09;;;;;;;4.43;2.97;;;;;;;21.27;63.72;100023.93;;;;-57
2021/06/17 05:36:10;;;;;;;3.99;2.77;;;;;;;21.26;63.85;100022.23;;;;-57
2021/06/17 05:39:09;;;;;;;3.89;2.77;;;;;;;21.26;63.76;100031.13;;;;-57
2021/06/17 05:42:09;;;;;;;6.03;2.67;;;;;;;21.25;63.87;100032.12;;;;-51
2021/06/17 05:45:09;;;;;;;4.03;2.75;;;;;;;21.24;63.81;100033.50;;;;-57
2021/06/17 05:48:09;;;;;;;2.89;2.68;;;;;;;21.25;63.75;100036.01;;;;-57
2021/06/17 05:51:09;;;;;;;3.45;2.70;;;;;;;21.24;63.83;100038.06;;;;-57
2021/06/17 05:54:09;;;;;;;3.12;2.73;;;;;;;21.24;63.72;100042.05;;;;-51
2021/06/17 05:57:10;;;;;;;3.45;2.83;;;;;;;21.24;63.71;100038.16;;;;-51
2021/06/17 06:00:09;;;;;;;3.51;2.66;;;;;;;21.23;63.78;100041.83;;;;-51
2021/06/17 06:03:09;;;;;;;2.97;2.74;;;;;;;21.24;63.79;100053.87;;;;-57
2021/06/17 06:06:09;;;;;;;3.61;2.60;;;;;;;21.23;63.74;100050.93;;;;-57
2021/06/17 06:09:10;;;;;;;3.16;2.66;;;;;;;21.23;63.76;100056.72;;;;-57
2021/06/17 06:12:10;;;;;;;2.96;2.65;;;;;;;21.23;63.81;100063.97;;;;-57
2021/06/17 06:15:09;;;;;;;2.87;2.67;;;;;;;21.23;63.76;100063.32;;;;-55
2021/06/17 06:18:09;;;;;;;2.91;2.68;;;;;;;21.22;63.79;100069.86;;;;-51
2021/06/17 06:21:09;;;;;;;2.80;2.60;;;;;;;21.22;63.66;100075.88;;;;-57
2021/06/17 06:24:09;;;;;;;3.11;2.85;;;;;;;21.22;63.71;100084.69;;;;-57
2021/06/17 06:27:09;;;;;;;2.87;2.60;;;;;;;21.22;63.79;100088.93;;;;-54
2021/06/17 06:30:09;;;;;;;2.78;2.56;;;;;;;21.22;63.75;100094.87;;;;-55
2021/06/17 06:33:09;;;;;;;2.93;2.67;;;;;;;21.21;63.74;100092.53;;;;-55
2021/06/17 06:36:09;;;;;;;2.93;2.67;;;;;;;21.21;63.71;100095.95;;;;-57
2021/06/17 06:39:09;;;;;;;2.74;2.54;;;;;;;21.22;63.81;100100.59;;;;-57
2021/06/17 06:42:09;;;;;;;2.98;2.74;;;;;;;21.21;63.71;100100.27;;;;-57
2021/06/17 06:45:09;;;;;;;2.67;2.47;;;;;;;21.20;63.76;100110.84;;;;-57
2021/06/17 06:48:09;;;;;;;2.97;2.67;;;;;;;21.21;63.80;100108.19;;;;-57
2021/06/17 06:51:09;;;;;;;3.15;2.70;;;;;;;21.20;63.69;100111.19;;;;-57
2021/06/17 06:54:09;;;;;;;2.73;2.53;;;;;;;21.20;63.73;100109.80;;;;-56
2021/06/17 06:57:09;;;;;;;2.88;2.68;;;;;;;21.20;63.76;100110.20;;;;-57
2021/06/17 07:00:09;;;;;;;3.04;2.74;;;;;;;21.19;63.82;100110.05;;;;-57
2021/06/17 07:03:09;;;;;;;2.73;2.53;;;;;;;21.20;63.81;100114.86;;;;-57
2021/06/17 07:06:09;;;;;;;3.46;2.63;;;;;;;21.19;63.78;100111.77;;;;-57
2021/06/17 07:09:10;;;;;;;2.80;2.60;;;;;;;21.19;63.86;100104.69;;;;-57
2021/06/17 07:12:09;;;;;;;2.70;2.50;;;;;;;21.19;63.77;100101.34;;;;-57
2021/06/17 07:15:09;;;;;;;4.67;2.71;;;;;;;21.20;64.07;100099.85;;;;-55
2021/06/17 07:18:09;;;;;;;4.89;2.59;;;;;;;21.21;64.21;100095.30;;;;-53
2021/06/17 07:21:11;;;;;;;3.17;2.72;;;;;;;21.23;64.26;100090.55;;;;-52
2021/06/17 07:24:10;;;;;;;4.13;2.66;;;;;;;21.23;64.58;100083.47;;;;-54
2021/06/17 07:27:09;;;;;;;2.95;2.62;;;;;;;21.25;64.46;100089.80;;;;-54
2021/06/17 07:30:10;;;;;;;2.97;2.69;;;;;;;21.26;64.67;100099.48;;;;-51
2021/06/17 07:33:09;;;;;;;7.49;3.03;;;;;;;21.30;65.47;100112.52;;;;-54
2021/06/17 07:36:09;;;;;;;6.70;2.90;;;;;;;21.29;64.59;100122.55;;;;-54
2021/06/17 07:39:09;;;;;;;6.45;2.73;;;;;;;21.29;64.37;100125.16;;;;-54
2021/06/17 07:42:10;;;;;;;6.41;2.84;;;;;;;21.29;64.17;100127.26;;;;-54
2021/06/17 07:45:09;;;;;;;2.61;2.40;;;;;;;21.29;64.14;100128.97;;;;-54
2021/06/17 07:48:10;;;;;;;2.85;2.53;;;;;;;21.28;64.14;100124.75;;;;-55
2021/06/17 07:51:09;;;;;;;7.75;2.97;;;;;;;21.28;64.51;100121.09;;;;-51
2021/06/17 07:54:09;;;;;;;3.71;2.55;;;;;;;21.29;64.78;100113.98;;;;-51
2021/06/17 07:57:09;;;;;;;7.97;3.07;;;;;;;21.31;64.93;100105.23;;;;-58
2021/06/17 08:00:09;;;;;;;5.85;2.80;;;;;;;21.33;64.93;100117.94;;;;-60
2021/06/17 08:03:09;;;;;;;6.10;2.78;;;;;;;21.34;64.92;100116.00;;;;-59
2021/06/17 08:06:09;;;;;;;5.94;2.87;;;;;;;21.36;65.01;100113.38;;;;-53
2021/06/17 08:09:09;;;;;;;7.57;2.79;;;;;;;21.36;64.72;100112.70;;;;-51
2021/06/17 08:12:09;;;;;;;3.37;2.61;;;;;;;21.36;64.62;100108.73;;;;-51
2021/06/17 08:15:09;;;;;;;4.31;2.77;;;;;;;21.36;64.42;100110.85;;;;-51
2021/06/17 08:18:09;;;;;;;2.97;2.52;;;;;;;21.35;64.30;100117.84;;;;-51
2021/06/17 08:21:09;;;;;;;6.43;2.70;;;;;;;21.35;64.83;100110.75;;;;-51
2021/06/17 08:24:09;;;;;;;5.49;2.77;;;;;;;21.34;64.62;100118.92;;;;-51
2021/06/17 08:27:09;;;;;;;7.73;2.99;;;;;;;21.34;64.48;100127.41;;;;-51
2021/06/17 08:30:09;;;;;;;5.98;2.72;;;;;;;21.33;64.36;100130.33;;;;-52
2021/06/17 08:33:09;;;;;;;3.61;2.67;;;;;;;21.32;64.30;100137.28;;;;-52
2021/06/17 08:36:10;;;;;;;5.84;2.81;;;;;;;21.33;64.23;100140.53;;;;-52
2021/06/17 08:39:09;;;;;;;4.49;2.74;;;;;;;21.32;64.31;100128.97;;;;-52
2021/06/17 08:42:09;;;;;;;4.27;2.54;;;;;;;21.31;64.23;100117.80;;;;-52
2021/06/17 08:45:10;;;;;;;4.32;2.71;;;;;;;21.30;64.10;100112.17;;;;-52
2021/06/17 08:48:09;;;;;;;3.07;2.70;;;;;;;21.30;64.11;100114.22;;;;-52
2021/06/17 08:51:09;;;;;;;4.32;2.71;;;;;;;21.30;64.11;100115.13;;;;-52
2021/06/17 08:54:09;;;;;;;4.10;2.66;;;;;;;21.29;64.11;100115.22;;;;-51
2021/06/17 08:57:09;;;;;;;5.84;2.78;;;;;;;21.29;64.06;100114.89;;;;-52
2021/06/17 09:00:09;;;;;;;3.86;2.55;;;;;;;21.29;64.05;100114.30;;;;-52
2021/06/17 09:05:09;;;;;;;3.83;2.56;;;;;;;21.28;64.08;100107.07;;;;-52
2021/06/17 09:08:09;;;;;;;4.10;2.67;;;;;;;21.28;64.05;100120.92;;;;-52
2021/06/17 09:11:09;;;;;;;3.17;2.54;;;;;;;21.27;64.06;100118.73;;;;-52
2021/06/17 09:14:09;;;;;;;3.56;2.32;;;;;;;21.27;63.97;100120.50;;;;-51
2021/06/17 09:17:09;;;;;;;3.31;2.47;;;;;;;21.27;63.96;100123.20;;;;-52
2021/06/17 09:20:10;;;;;;;4.79;2.35;;;;;;;21.27;63.95;100120.75;;;;-52
2021/06/17 09:23:09;;;;;;;5.13;2.43;;;;;;;21.26;63.98;100113.83;;;;-52
2021/06/17 09:26:09;;;;;;;3.51;2.40;;;;;;;21.26;63.95;100104.38;;;;-52
2021/06/17 09:29:10;;;;;;;3.53;2.59;;;;;;;21.26;63.95;100100.63;;;;-51
2021/06/17 09:32:09;;;;;;;2.86;2.57;;;;;;;21.26;63.89;100111.31;;;;-52
2021/06/17 09:35:09;;;;;;;3.15;2.60;;;;;;;21.26;63.93;100110.75;;;;-52
2021/06/17 09:38:09;;;;;;;3.77;2.39;;;;;;;21.25;63.91;100116.62;;;;-52
2021/06/17 09:41:09;;;;;;;3.27;2.77;;;;;;;21.25;63.85;100111.56;;;;-52
2021/06/17 09:44:09;;;;;;;3.11;2.55;;;;;;;21.25;63.94;100103.34;;;;-51
2021/06/17 09:47:09;;;;;;;4.17;2.47;;;;;;;21.25;63.87;100104.00;;;;-52
2021/06/17 09:50:09;;;;;;;3.69;2.40;;;;;;;21.24;63.92;100100.48;;;;-52
2021/06/17 09:53:09;;;;;;;3.61;2.30;;;;;;;21.24;63.97;100100.97;;;;-52
2021/06/17 09:56:09;;;;;;;3.63;2.52;;;;;;;21.25;63.93;100097.30;;;;-51
2021/06/17 09:59:10;;;;;;;2.65;2.40;;;;;;;21.24;64.00;100099.59;;;;-51
2021/06/17 10:02:09;;;;;;;3.25;2.44;;;;;;;21.24;63.92;100098.37;;;;-52
2021/06/17 10:05:11;;;;;;;3.28;2.33;;;;;;;21.24;63.97;100099.26;;;;-52
2021/06/17 10:08:09;;;;;;;2.69;2.49;;;;;;;21.24;63.92;100098.37;;;;-52
2021/06/17 10:11:09;;;;;;;2.97;2.43;;;;;;;21.24;63.89;100097.39;;;;-52
2021/06/17 10:14:09;;;;;;;2.47;2.27;;;;;;;21.24;63.88;100101.72;;;;-53
2021/06/17 10:17:09;;;;;;;2.89;2.43;;;;;;;21.23;64.01;100096.91;;;;-52
2021/06/17 10:20:09;;;;;;;2.35;2.12;;;;;;;21.24;63.93;100099.84;;;;-52
2021/06/17 10:23:09;;;;;;;3.27;2.33;;;;;;;21.23;63.92;100095.77;;;;-52
2021/06/17 10:26:09;;;;;;;2.55;2.35;;;;;;;21.22;63.94;100087.94;;;;-52
2021/06/17 10:29:09;;;;;;;2.86;2.56;;;;;;;21.22;63.91;100082.89;;;;-52
2021/06/17 10:32:09;;;;;;;2.49;2.25;;;;;;;21.22;63.94;100082.56;;;;-51
2021/06/17 10:35:09;;;;;;;2.49;2.29;;;;;;;21.22;63.96;100084.84;;;;-51
2021/06/17 10:38:09;;;;;;;3.43;2.37;;;;;;;21.21;63.96;100080.87;;;;-51
2021/06/17 10:41:09;;;;;;;2.75;2.23;;;;;;;21.23;63.86;100083.12;;;;-52
2021/06/17 10:44:09;;;;;;;2.49;2.29;;;;;;;21.22;63.92;100079.30;;;;-52
2021/06/17 10:47:09;;;;;;;2.83;2.47;;;;;;;21.22;63.96;100070.83;;;;-52
2021/06/17 10:53:09;;;;;;;2.56;2.36;;;;;;;21.21;63.93;100060.91;;;;-52
2021/06/17 10:56:09;;;;;;;3.07;2.23;;;;;;;21.21;63.96;100063.20;;;;-51
2021/06/17 10:59:09;;;;;;;2.50;2.30;;;;;;;21.21;63.91;100059.36;;;;-52
2021/06/17 11:02:09;;;;;;;2.51;2.30;;;;;;;21.21;63.98;100060.42;;;;-51
2021/06/17 11:05:09;;;;;;;3.06;2.27;;;;;;;21.20;64.03;100050.80;;;;-51
2021/06/17 11:08:09;;;;;;;2.85;2.22;;;;;;;21.21;63.97;100049.19;;;;-52
2021/06/17 11:11:09;;;;;;;2.50;2.30;;;;;;;21.20;64.00;100049.41;;;;-51
2021/06/17 11:14:09;;;;;;;3.47;2.33;;;;;;;21.20;63.93;100049.16;;;;-52
2021/06/17 11:17:09;;;;;;;2.53;2.26;;;;;;;21.20;63.93;100046.55;;;;-52
2021/06/17 11:20:11;;;;;;;3.21;2.42;;;;;;;21.20;63.95;100050.55;;;;-52
2021/06/17 11:23:09;;;;;;;2.85;2.31;;;;;;;21.19;63.92;100040.63;;;;-52
2021/06/17 11:26:09;;;;;;;2.30;2.10;;;;;;;21.20;64.01;100041.18;;;;-52
2021/06/17 11:29:09;;;;;;;2.50;2.29;;;;;;;21.20;63.98;100038.33;;;;-52
2021/06/17 11:32:09;;;;;;;2.65;2.34;;;;;;;21.20;63.96;100039.23;;;;-51
2021/06/17 11:35:10;;;;;;;3.46;2.31;;;;;;;21.19;63.95;100034.12;;;;-52
2021/06/17 11:38:09;;;;;;;2.73;2.19;;;;;;;21.19;64.00;100029.22;;;;-52
2021/06/17 11:41:09;;;;;;;2.60;2.40;;;;;;;21.19;63.99;100031.33;;;;-52
2021/06/17 11:44:09;;;;;;;2.85;2.29;;;;;;;21.19;64.02;100023.60;;;;-52
2021/06/17 11:47:09;;;;;;;2.49;2.29;;;;;;;21.19;63.97;100021.39;;;;-51
2021/06/17 11:50:09;;;;;;;3.13;2.37;;;;;;;21.19;63.99;100022.13;;;;-51
2021/06/17 11:53:09;;;;;;;2.31;2.10;;;;;;;21.19;63.95;100016.77;;;;-51
2021/06/17 11:56:09;;;;;;;2.36;2.15;;;;;;;21.20;64.00;100014.63;;;;-51
2021/06/17 11:59:09;;;;;;;2.63;2.32;;;;;;;21.18;63.99;100010.30;;;;-51
2021/06/17 12:02:09;;;;;;;2.34;2.14;;;;;;;21.18;63.96;100012.91;;;;-53
2021/06/17 12:05:10;;;;;;;2.45;2.13;;;;;;;21.19;64.07;100013.98;;;;-52
2021/06/17 12:08:10;;;;;;;2.44;2.23;;;;;;;21.19;63.92;100014.40;;;;-52
2021/06/17 12:11:09;;;;;;;2.47;2.27;;;;;;;21.19;63.95;100026.38;;;;-52
2021/06/17 12:14:09;;;;;;;2.42;2.22;;;;;;;21.18;63.98;100025.95;;;;-52
2021/06/17 12:17:09;;;;;;;2.35;2.15;;;;;;;21.18;64.02;100026.36;;;;-52
2021/06/17 12:20:09;;;;;;;5.08;2.37;;;;;;;21.18;64.00;100023.92;;;;-50
2021/06/17 12:23:09;;;;;;;2.38;2.18;;;;;;;21.21;64.27;100022.37;;;;-51
2021/06/17 12:26:10;;;;;;;2.32;2.12;;;;;;;21.22;64.23;100020.88;;;;-49
2021/06/17 12:29:12;;;;;;;2.38;2.18;;;;;;;21.24;64.31;100020.38;;;;-49
2021/06/17 12:32:09;;;;;;;3.41;2.30;;;;;;;21.25;64.25;100020.77;;;;-49
2021/06/17 12:35:09;;;;;;;2.49;2.26;;;;;;;21.26;64.54;100017.27;;;;-50
2021/06/17 12:38:09;;;;;;;2.68;2.20;;;;;;;21.28;64.51;100021.16;;;;-56
2021/06/17 12:41:09;;;;;;;2.53;2.33;;;;;;;21.30;64.52;100024.89;;;;-54
2021/06/17 12:44:09;;;;;;;3.95;2.17;;;;;;;21.32;64.42;100018.20;;;;-51
2021/06/17 12:47:15;;;;;;;2.97;2.31;;;;;;;21.34;64.53;100018.67;;;;-52
2021/06/17 12:53:09;;;;;;;2.61;2.33;;;;;;;21.38;64.60;100012.53;;;;-51
2021/06/17 12:56:09;;;;;;;2.70;2.43;;;;;;;21.39;64.56;100010.06;;;;-54
2021/06/17 12:59:09;;;;;;;2.48;2.28;;;;;;;21.39;64.54;100009.23;;;;-51
2021/06/17 13:02:09;;;;;;;2.97;2.33;;;;;;;21.41;64.63;100011.50;;;;-51
2021/06/17 13:05:09;;;;;;;2.90;2.35;;;;;;;21.43;64.55;100013.16;;;;-52
2021/06/17 13:08:10;;;;;;;4.39;2.25;;;;;;;21.42;64.42;100012.11;;;;-52
2021/06/17 13:11:09;;;;;;;3.49;2.33;;;;;;;21.43;64.67;100018.05;;;;-55
2021/06/17 13:14:09;;;;;;;5.19;2.59;;;;;;;21.44;64.56;100015.86;;;;-50
2021/06/17 13:17:09;;;;;;;4.41;2.50;;;;;;;21.44;64.69;100015.77;;;;-52
2021/06/17 13:20:09;;;;;;;4.27;2.47;;;;;;;21.44;64.77;100013.64;;;;-50
2021/06/17 13:23:12;;;;;;;5.03;2.81;;;;;;;21.45;64.79;100016.55;;;;-48
2021/06/17 13:26:09;;;;;;;5.98;2.80;;;;;;;21.47;65.15;100012.87;;;;-52
2021/06/17 13:29:09;;;;;;;9.01;2.89;;;;;;;21.49;65.15;100016.59;;;;-51
2021/06/17 13:32:09;;;;;;;6.87;2.84;;;;;;;21.50;65.11;100011.31;;;;-52
2021/06/17 13:35:10;;;;;;;5.62;2.99;;;;;;;21.50;65.06;100005.66;;;;-50
2021/06/17 13:38:09;;;;;;;6.40;3.05;;;;;;;21.50;65.39;99998.65;;;;-53
2021/06/17 13:41:09;;;;;;;8.49;3.36;;;;;;;21.54;65.46;100001.81;;;;-48
2021/06/17 13:44:09;;;;;;;7.84;2.87;;;;;;;21.56;65.09;99999.41;;;;-55
2021/06/17 13:47:09;;;;;;;6.99;3.09;;;;;;;21.57;65.23;100004.56;;;;-55
2021/06/17 13:50:09;;;;;;;5.22;3.13;;;;;;;21.57;65.03;99999.66;;;;-53
2021/06/17 13:53:09;;;;;;;6.48;3.15;;;;;;;21.56;64.78;99997.39;;;;-59
2021/06/17 13:56:09;;;;;;;7.38;3.41;;;;;;;21.56;65.05;100001.47;;;;-60
2021/06/17 13:59:09;;;;;;;7.21;3.05;;;;;;;21.57;65.02;100000.39;;;;-51
2021/06/17 14:02:09;;;;;;;5.44;3.00;;;;;;;21.57;65.06;99999.98;;;;-52
2021/06/17 14:05:09;;;;;;;5.01;3.13;;;;;;;21.57;65.08;99996.62;;;;-51
2021/06/17 14:08:09;;;;;;;4.77;3.05;;;;;;;21.58;64.97;99994.77;;;;-55
2021/06/17 14:11:09;;;;;;;6.03;3.27;;;;;;;21.58;65.04;99987.42;;;;-49
2021/06/17 14:14:09;;;;;;;5.93;3.30;;;;;;;21.59;65.05;99988.06;;;;-51
2021/06/17 14:17:09;;;;;;;9.34;3.20;;;;;;;21.60;64.75;99986.41;;;;-57
2021/06/17 14:20:09;;;;;;;7.25;3.44;;;;;;;21.59;64.88;99980.95;;;;-52
2021/06/17 14:23:09;;;;;;;7.04;3.11;;;;;;;21.60;64.94;99981.68;;;;-57
2021/06/17 14:26:09;;;;;;;4.93;3.15;;;;;;;21.60;64.82;99979.07;;;;-57
2021/06/17 14:29:10;;;;;;;5.86;3.24;;;;;;;21.59;64.78;99980.64;;;;-57
2021/06/17 14:32:09;;;;;;;8.03;3.28;;;;;;;21.60;64.85;99977.93;;;;-57
2021/06/17 14:35:09;;;;;;;8.29;3.21;;;;;;;21.61;64.72;99975.41;;;;-60
2021/06/17 14:38:09;;;;;;;5.31;3.15;;;;;;;21.62;64.87;99976.78;;;;-55
2021/06/17 14:41:12;;;;;;;5.41;3.21;;;;;;;21.64;64.79;99974.95;;;;-59
2021/06/17 14:44:11;;;;;;;7.33;3.27;;;;;;;21.65;64.69;99977.56;;;;-55
2021/06/17 14:47:09;;;;;;;4.50;3.27;;;;;;;21.65;64.79;99975.03;;;;-54
2021/06/17 14:50:09;;;;;;;6.40;2.97;;;;;;;21.67;64.79;99973.47;;;;-50
2021/06/17 14:53:09;;;;;;;8.30;3.29;;;;;;;21.67;64.66;99970.95;;;;-51
2021/06/17 14:56:09;;;;;;;4.61;2.99;;;;;;;21.67;64.76;99971.17;;;;-54
2021/06/17 14:59:09;;;;;;;5.32;3.09;;;;;;;21.68;64.71;99975.80;;;;-52
2021/06/17 15:02:09;;;;;;;3.98;2.88;;;;;;;21.69;64.70;99977.52;;;;-51
2021/06/17 15:05:09;;;;;;;5.43;3.23;;;;;;;21.71;64.61;99975.05;;;;-52
2021/06/17 15:08:09;;;;;;;5.22;2.95;;;;;;;21.72;64.55;99969.01;;;;-54
2021/06/17 15:11:09;;;;;;;6.11;3.23;;;;;;;21.72;64.63;99968.67;;;;-51
2021/06/17 15:14:09;;;;;;;4.63;2.93;;;;;;;21.73;64.74;99964.58;;;;-51
2021/06/17 15:17:10;;;;;;;5.07;3.15;;;;;;;21.73;64.65;99967.44;;;;-53
2021/06/17 15:20:09;;;;;;;4.61;2.99;;;;;;;21.75;64.63;99969.54;;;;-54
2021/06/17 15:23:09;;;;;;;4.51;2.97;;;;;;;21.77;64.67;99967.80;;;;-63
2021/06/17 15:26:10;;;;;;;4.12;3.05;;;;;;;21.77;64.57;99965.02;;;;-52
2021/06/17 15:29:09;;;;;;;6.28;3.12;;;;;;;21.77;64.66;99960.71;;;;-53
2021/06/17 15:32:09;;;;;;;6.15;3.10;;;;;;;21.78;64.53;99958.40;;;;-60
2021/06/17 15:35:09;;;;;;;5.42;2.95;;;;;;;21.79;64.61;99956.19;;;;-55
2021/06/17 15:38:09;;;;;;;3.81;2.87;;;;;;;21.80;64.42;99955.87;;;;-51
2021/06/17 15:41:09;;;;;;;3.37;2.81;;;;;;;21.80;64.62;99952.44;;;;-51
2021/06/17 15:44:11;;;;;;;5.11;2.99;;;;;;;21.81;64.59;99945.58;;;;-55
2021/06/17 15:47:09;;;;;;;3.07;2.71;;;;;;;21.82;64.62;99946.96;;;;-55
2021/06/17 15:50:09;;;;;;;5.75;3.29;;;;;;;21.82;64.60;99940.26;;;;-52
2021/06/17 15:53:09;;;;;;;6.51;3.01;;;;;;;21.84;64.58;99936.49;;;;-50
2021/06/17 15:56:09;;;;;;;3.87;3.02;;;;;;;21.84;64.58;99929.06;;;;-56
2021/06/17 15:59:09;;;;;;;3.40;2.98;;;;;;;21.85;64.55;99933.71;;;;-57
2021/06/17 16:02:09;;;;;;;5.19;3.02;;;;;;;21.85;64.59;99931.27;;;;-58
2021/06/17 16:05:09;;;;;;;4.93;2.95;;;;;;;21.85;64.64;99927.42;;;;-56
2021/06/17 16:08:10;;;;;;;6.91;3.07;;;;;;;21.87;64.48;99930.66;;;;-54
2021/06/17 16:11:09;;;;;;;3.77;2.87;;;;;;;21.86;64.28;99928.79;;;;-58
2021/06/17 16:14:09;;;;;;;3.53;2.91;;;;;;;21.86;64.42;99922.68;;;;-58
2021/06/17 16:17:09;;;;;;;3.99;3.11;;;;;;;21.85;64.44;99918.92;;;;-59
2021/06/17 16:20:09;;;;;;;4.77;2.89;;;;;;;21.85;64.38;99913.80;;;;-59
2021/06/17 16:23:09;;;;;;;6.64;2.85;;;;;;;21.83;64.35;99908.69;;;;-54
2021/06/17 16:26:09;;;;;;;6.77;3.00;;;;;;;21.84;64.33;99904.36;;;;-52
2021/06/17 16:29:09;;;;;;;7.23;3.01;;;;;;;21.83;64.42;99901.02;;;;-52
2021/06/17 16:32:09;;;;;;;4.57;3.06;;;;;;;21.83;64.41;99896.13;;;;-51
2021/06/17 16:35:09;;;;;;;5.37;2.99;;;;;;;21.84;64.55;99900.84;;;;-52
2021/06/17 16:38:09;;;;;;;3.80;2.90;;;;;;;21.85;64.45;99906.94;;;;-61
2021/06/17 16:41:09;;;;;;;3.83;2.90;;;;;;;21.85;64.43;99901.08;;;;-62
2021/06/17 16:44:13;;;;;;;4.52;2.89;;;;;;;21.86;64.43;99898.62;;;;-52
2021/06/17 16:47:09;;;;;;;6.18;2.96;;;;;;;21.86;64.48;99902.44;;;;-51
2021/06/17 16:50:10;;;;;;;5.26;2.99;;;;;;;21.87;64.42;99901.11;;;;-51
2021/06/17 16:53:09;;;;;;;5.69;2.96;;;;;;;21.88;64.48;99896.14;;;;-53
2021/06/17 16:56:09;;;;;;;5.84;2.91;;;;;;;21.88;64.27;99898.66;;;;-51
2021/06/17 16:59:09;;;;;;;3.85;2.89;;;;;;;21.89;64.30;99894.98;;;;-51
2021/06/17 17:02:09;;;;;;;4.57;3.01;;;;;;;21.87;64.34;99895.66;;;;-51